Date,TemperatureHighF,TemperatureAvgF,TemperatureLowF,DewpointHighF,DewpointAvgF,DewpointLowF,HumidityHigh,HumidityAvg,HumidityLow,PressureMaxIn,PressureMinIn,WindSpeedMaxMPH,WindSpeedAvgMPH,GustSpeedMaxMPH,PrecipitationSumIn
2013-3-1,60.1,50.9,43.3,51.4,44.3,38.8,86,78,68,29.59,29.52,0,0,0,0.02
2013-3-2,52.7,46.0,32.7,46.7,40.1,27.2,85,80,74,29.56,29.39,0,0,0,0.04
2013-3-3,50.7,41.3,31.6,39.0,32.9,25.1,82,72,62,29.63,29.52,0,0,0,0.02
2013-3-4,49.6,41.0,29.1,39.0,32.3,23.2,81,71,63,29.63,29.27,58,0,58,0.00
2013-3-5,51.1,43.0,32.7,38.7,34.3,25.5,80,71,61,29.27,29.08,0,0,0,0.06
2013-3-6,46.6,43.6,38.3,39.1,36.8,32.5,83,77,72,29.21,28.98,0,0,0,0.50
2013-3-7,50.7,45.2,37.2,42.7,37.8,30.9,84,75,68,29.44,29.21,0,0,0,0.04
2013-3-8,51.6,43.8,32.5,41.4,35.5,27.1,83,73,64,29.57,29.42,0,0,0,0.00
2013-3-9,55.0,44.5,31.6,43.0,35.5,25.9,81,71,62,29.82,29.57,0,0,0,0.00
2013-3-10,48.0,45.1,38.1,40.1,37.7,31.6,80,75,71,29.82,29.74,0,0,0,0.16
2013-3-11,52.0,45.3,38.5,43.2,38.4,32.8,83,77,72,29.76,29.41,0,0,0,0.02
2013-3-12,55.2,49.2,39.6,48.8,43.4,34.2,86,81,77,29.42,29.30,0,0,0,0.18
2013-3-13,57.9,51.0,45.1,51.1,45.5,40.6,87,81,76,29.47,29.35,0,0,0,0.06
2013-3-14,56.5,50.2,43.5,47.9,43.8,38.1,86,79,71,29.44,29.33,0,0,0,0.00
2013-3-15,57.9,49.6,43.0,49.3,43.4,38.1,85,79,72,29.52,29.44,0,0,0,0.02
2013-3-16,50.4,44.8,33.6,45.5,39.4,28.7,86,81,77,29.45,29.21,0,0,0,0.22
2013-3-17,50.7,41.7,33.4,38.5,32.7,27.6,83,71,59,29.50,29.29,0,0,0,0.00
2013-3-18,56.8,44.8,34.3,39.4,34.0,27.8,81,67,48,29.57,29.39,0,0,0,0.02
2013-3-19,52.0,42.5,32.2,39.5,33.5,25.5,80,70,61,29.55,28.82,0,0,0,0.06
2013-3-20,55.9,44.5,32.4,48.8,38.3,27.1,85,79,72,29.32,28.59,0,0,0,0.44
2013-3-21,50.2,39.8,30.4,39.2,32.1,25.5,83,74,63,29.53,29.32,0,0,0,0.04
2013-3-22,50.9,40.8,30.7,36.0,30.2,22.6,80,66,55,29.69,29.52,0,0,0,0.00
2013-3-23,52.0,42.3,30.7,37.7,31.7,22.8,77,66,55,29.71,29.62,0,0,0,0.00
2013-3-24,52.3,42.3,30.7,39.1,32.2,24.1,78,68,57,29.62,29.46,0,0,0,0.00
2013-3-25,61.2,47.3,33.4,42.9,35.2,26.9,80,64,46,29.47,29.30,0,0,0,0.00
2013-3-26,58.8,50.0,38.3,42.4,37.5,30.7,76,63,49,29.36,29.31,0,0,0,0.00
2013-3-27,59.7,50.4,40.3,45.2,39.6,33.0,76,67,56,29.34,29.29,0,0,0,0.00
2013-3-28,60.4,50.0,38.1,49.4,41.5,31.9,81,73,62,29.49,29.34,0,0,0,0.02
2013-3-29,67.6,52.4,39.9,50.9,41.7,33.0,81,68,51,29.60,29.49,0,0,0,0.00
2013-3-30,69.8,52.6,38.7,51.1,40.3,31.1,77,64,47,29.63,29.46,0,0,0,0.00
2013-3-31,73.6,55.2,39.6,49.4,40.5,32.0,75,59,39,29.46,29.28,58,0,58,0.00